Time;durP1;ratioP1;P1;durP2;ratioP2;P2;SDS_P1;SDS_P2;PMS_P1;PMS_P2;Temp;Humidity;BMP_temperature;BMP_pressure;BME280_temperature;BME280_humidity;BME280_pressure;Samples;Min_cycle;Max_cycle;Signal;HPM_P1;HPM_P2
2020/12/30 00:02:03;;;;;;;3.42;2.05;;;1.10;98.00;;;;;;5022496;28;20026;-64
2020/12/30 00:04:29;;;;;;;4.88;2.47;;;1.10;98.00;;;;;;5021126;28;20037;-64
2020/12/30 00:06:54;;;;;;;4.40;2.45;;;1.10;98.00;;;;;;5022153;28;20025;-64
2020/12/30 00:09:20;;;;;;;5.88;2.25;;;1.10;98.00;;;;;;5023417;28;20041;-64
2020/12/30 00:11:45;;;;;;;4.35;2.30;;;1.20;98.00;;;;;;5029113;28;20028;-64
2020/12/30 00:14:11;;;;;;;4.57;2.22;;;1.10;98.00;;;;;;5028343;28;20039;-65
2020/12/30 00:16:37;;;;;;;4.75;2.03;;;1.20;98.00;;;;;;5029145;28;20025;-65
2020/12/30 00:19:03;;;;;;;3.95;2.30;;;1.10;98.00;;;;;;5035207;28;20026;-66
2020/12/30 00:21:29;;;;;;;3.67;2.05;;;1.20;98.00;;;;;;5029835;28;20121;-64
2020/12/30 00:23:54;;;;;;;3.38;2.08;;;1.20;98.00;;;;;;5035489;28;20367;-65
2020/12/30 00:26:20;;;;;;;3.42;2.10;;;1.20;98.00;;;;;;5033783;28;20041;-64
2020/12/30 00:28:46;;;;;;;4.70;2.47;;;1.20;98.00;;;;;;5035584;28;20061;-64
2020/12/30 00:31:12;;;;;;;5.72;2.28;;;1.30;98.00;;;;;;5030735;28;20056;-64
2020/12/30 00:33:37;;;;;;;3.38;2.10;;;1.30;98.00;;;;;;5027590;28;20025;-64
2020/12/30 00:36:06;;;;;;;3.42;1.90;;;1.30;98.00;;;;;;5034866;28;20028;-64
2020/12/30 00:38:32;;;;;;;4.22;2.30;;;1.30;98.00;;;;;;5041492;28;20044;-66
2020/12/30 00:40:59;;;;;;;5.30;2.60;;;1.30;98.00;;;;;;5029856;28;20025;-64
2020/12/30 00:43:27;;;;;;;3.65;2.20;;;1.30;98.00;;;;;;5033740;28;20033;-63
2020/12/30 00:45:53;;;;;;;5.57;2.10;;;1.30;98.00;;;;;;5025694;28;20057;-67
2020/12/30 00:48:19;;;;;;;3.10;2.00;;;1.30;98.00;;;;;;5033744;28;20080;-66
2020/12/30 00:50:44;;;;;;;3.03;1.88;;;1.40;98.00;;;;;;5034002;28;20092;-66
2020/12/30 00:53:10;;;;;;;3.85;2.15;;;1.50;97.80;;;;;;5034537;28;20037;-67
2020/12/30 00:55:35;;;;;;;4.00;2.05;;;1.60;97.30;;;;;;5033443;28;20030;-67
2020/12/30 00:58:01;;;;;;;5.10;1.90;;;1.50;97.30;;;;;;5031037;28;20025;-66
2020/12/30 01:00:27;;;;;;;5.47;2.60;;;1.50;97.40;;;;;;5030912;28;20026;-66
2020/12/30 01:02:55;;;;;;;2.97;1.60;;;1.40;97.60;;;;;;5038310;28;20404;-67
2020/12/30 01:05:21;;;;;;;5.15;2.03;;;1.50;97.70;;;;;;5052815;28;20083;-66
2020/12/30 01:07:47;;;;;;;2.70;1.60;;;1.50;97.70;;;;;;5035143;28;20112;-66
2020/12/30 01:10:12;;;;;;;2.70;1.73;;;1.50;97.60;;;;;;5029621;28;20128;-66
2020/12/30 01:12:38;;;;;;;3.60;1.90;;;1.50;97.50;;;;;;5032094;28;20037;-66
2020/12/30 01:15:05;;;;;;;2.22;1.45;;;1.60;97.20;;;;;;5031698;28;20029;-66
2020/12/30 01:17:31;;;;;;;3.17;1.50;;;1.60;97.10;;;;;;5028098;28;20449;-66
2020/12/30 01:19:56;;;;;;;2.10;1.40;;;1.80;96.70;;;;;;5029343;28;20041;-66
2020/12/30 01:22:22;;;;;;;2.53;1.58;;;1.90;96.20;;;;;;5029658;28;20132;-65
2020/12/30 01:24:47;;;;;;;2.45;1.27;;;1.90;96.00;;;;;;5027654;28;20052;-66
2020/12/30 01:27:13;;;;;;;3.85;1.40;;;1.90;96.10;;;;;;5027347;28;20067;-66
2020/12/30 01:29:39;;;;;;;2.72;1.52;;;2.10;95.50;;;;;;5033420;28;20082;-65
2020/12/30 01:32:04;;;;;;;1.95;1.38;;;2.10;95.10;;;;;;5033186;28;20067;-66
2020/12/30 01:34:30;;;;;;;3.33;1.40;;;2.10;94.90;;;;;;5032265;28;20491;-64
2020/12/30 01:36:56;;;;;;;3.42;1.48;;;2.00;95.20;;;;;;5032339;28;20032;-65
2020/12/30 01:39:21;;;;;;;3.30;1.85;;;1.90;95.60;;;;;;5032767;28;20029;-67
2020/12/30 01:41:48;;;;;;;1.73;1.30;;;1.80;95.70;;;;;;5031229;28;20361;-66
2020/12/30 01:44:13;;;;;;;2.65;1.45;;;1.80;95.90;;;;;;5032526;28;20030;-65
2020/12/30 01:46:41;;;;;;;7.60;1.63;;;1.90;95.70;;;;;;5030336;28;20021;-67
2020/12/30 01:49:12;;;;;;;1.75;1.25;;;2.00;95.50;;;;;;5030688;28;20030;-64
2020/12/30 01:51:40;;;;;;;4.03;1.58;;;1.90;95.60;;;;;;5031950;28;20333;-66
2020/12/30 01:54:09;;;;;;;3.17;1.70;;;2.00;95.40;;;;;;5032586;28;20030;-66
2020/12/30 01:56:35;;;;;;;2.83;1.60;;;2.00;95.50;;;;;;5030761;28;20028;-67
2020/12/30 01:59:07;;;;;;;3.63;1.63;;;1.90;95.40;;;;;;5034525;28;20033;-66
2020/12/30 02:01:36;;;;;;;2.42;1.30;;;1.90;95.60;;;;;;5029259;28;20112;-66
2020/12/30 02:04:04;;;;;;;2.25;1.40;;;2.00;95.50;;;;;;5034026;28;20021;-65
2020/12/30 02:06:30;;;;;;;2.50;1.40;;;2.00;95.30;;;;;;5026170;28;20033;-66
2020/12/30 02:08:57;;;;;;;3.50;1.50;;;2.00;95.10;;;;;;5033345;28;20022;-66
2020/12/30 02:11:25;;;;;;;2.50;1.50;;;2.00;95.10;;;;;;5031555;28;20026;-67
2020/12/30 02:14:11;;;;;;;2.78;1.55;;;1.80;95.50;;;;;;5033133;28;20167;-68
2020/12/30 02:16:52;;;;;;;1.92;1.20;;;1.60;95.70;;;;;;5033797;28;20322;-65
2020/12/30 02:19:18;;;;;;;3.38;1.55;;;1.50;96.20;;;;;;5035639;28;20360;-64
2020/12/30 02:21:44;;;;;;;3.45;1.60;;;1.40;96.40;;;;;;5033468;28;20418;-64
2020/12/30 02:24:32;;;;;;;2.70;1.48;;;1.30;96.60;;;;;;5030639;28;20065;-65
2020/12/30 02:26:59;;;;;;;3.42;1.73;;;1.30;96.80;;;;;;5033840;28;20053;-64
2020/12/30 02:29:26;;;;;;;3.20;1.40;;;1.40;96.40;;;;;;5034446;28;20100;-66
2020/12/30 02:31:54;;;;;;;2.08;1.30;;;1.30;96.20;;;;;;5030311;28;20037;-65
2020/12/30 02:34:21;;;;;;;3.67;1.92;;;1.40;96.10;;;;;;5031286;28;20030;-66
2020/12/30 02:36:47;;;;;;;2.85;1.45;;;1.50;95.70;;;;;;5032181;28;20326;-64
2020/12/30 02:39:13;;;;;;;2.33;1.42;;;1.50;95.20;;;;;;5029945;28;20034;-66
2020/12/30 02:41:39;;;;;;;4.65;1.52;;;1.60;94.80;;;;;;5029331;28;20033;-66
2020/12/30 02:44:06;;;;;;;3.10;1.60;;;1.60;94.60;;;;;;5031670;28;20044;-66
2020/12/30 02:46:32;;;;;;;2.58;1.20;;;1.50;94.50;;;;;;5029899;28;20036;-65
2020/12/30 02:48:58;;;;;;;3.03;1.40;;;1.30;95.00;;;;;;5030568;28;20042;-65
2020/12/30 02:51:24;;;;;;;2.13;1.20;;;1.10;95.80;;;;;;5029656;28;20045;-66
2020/12/30 02:53:49;;;;;;;2.15;1.30;;;0.90;96.20;;;;;;5029545;28;20311;-65
2020/12/30 02:56:17;;;;;;;6.07;2.00;;;0.80;96.80;;;;;;5029304;28;20044;-65
2020/12/30 02:58:44;;;;;;;3.60;1.50;;;0.80;97.00;;;;;;5031203;28;20094;-66
2020/12/30 03:01:10;;;;;;;7.88;1.88;;;0.60;96.90;;;;;;5029910;28;20033;-66
2020/12/30 03:03:37;;;;;;;2.10;1.30;;;0.60;97.40;;;;;;5029878;28;20032;-66
2020/12/30 03:06:03;;;;;;;4.38;1.50;;;0.70;97.60;;;;;;5030868;28;20037;-65
2020/12/30 03:08:29;;;;;;;4.72;1.40;;;1.20;96.20;;;;;;5029653;28;20123;-66
2020/12/30 03:10:55;;;;;;;7.40;1.40;;;1.20;95.60;;;;;;5028004;28;20025;-65
2020/12/30 03:13:20;;;;;;;2.72;1.38;;;1.00;95.80;;;;;;5031170;28;20087;-65
2020/12/30 03:15:46;;;;;;;3.05;1.58;;;0.80;96.60;;;;;;5031391;28;20108;-65
2020/12/30 03:18:12;;;;;;;3.80;1.50;;;0.60;97.00;;;;;;5030354;28;20632;-64
2020/12/30 03:20:37;;;;;;;4.60;1.70;;;0.50;97.60;;;;;;5030671;28;20087;-63
2020/12/30 03:23:03;;;;;;;2.15;1.40;;;0.30;97.80;;;;;;5030256;28;20050;-65
2020/12/30 03:25:28;;;;;;;4.22;1.85;;;0.40;98.00;;;;;;5029986;28;20025;-63
2020/12/30 03:27:56;;;;;;;8.02;1.42;;;0.70;97.50;;;;;;5030703;28;20030;-64
2020/12/30 03:30:22;;;;;;;2.15;1.40;;;0.80;96.90;;;;;;5031297;28;20029;-65
2020/12/30 03:32:48;;;;;;;2.47;1.48;;;0.80;96.60;;;;;;5029974;28;20105;-66
2020/12/30 03:35:14;;;;;;;1.92;1.40;;;0.80;96.50;;;;;;5031144;28;20109;-66
2020/12/30 03:37:39;;;;;;;2.83;1.25;;;0.50;96.70;;;;;;5030500;28;20029;-64
2020/12/30 03:40:05;;;;;;;2.28;1.45;;;0.30;97.40;;;;;;5029217;28;20034;-65
2020/12/30 03:42:31;;;;;;;2.47;1.60;;;0.20;97.90;;;;;;5030932;28;20033;-66
2020/12/30 03:44:57;;;;;;;2.30;1.50;;;0.20;98.00;;;;;;5030958;28;20144;-65
2020/12/30 03:47:23;;;;;;;2.67;1.50;;;0.20;98.00;;;;;;5030820;28;20420;-65
2020/12/30 03:49:49;;;;;;;2.42;1.60;;;0.20;98.00;;;;;;5030018;28;20112;-66
2020/12/30 03:52:16;;;;;;;2.42;1.73;;;0.30;98.00;;;;;;5030877;28;20151;-66
2020/12/30 03:54:42;;;;;;;3.17;1.75;;;0.40;98.00;;;;;;5029024;28;20370;-65
2020/12/30 03:57:07;;;;;;;5.15;1.50;;;0.40;98.00;;;;;;5029217;28;20135;-65
2020/12/30 03:59:33;;;;;;;2.40;1.42;;;0.30;98.00;;;;;;5031832;28;20152;-67
2020/12/30 04:01:59;;;;;;;3.05;1.42;;;0.50;98.00;;;;;;5030098;28;20091;-66
2020/12/30 04:04:24;;;;;;;2.83;1.50;;;0.60;97.70;;;;;;5030329;28;21417;-66
2020/12/30 04:06:50;;;;;;;3.60;1.60;;;0.50;97.80;;;;;;5030644;28;20033;-65
2020/12/30 04:09:16;;;;;;;3.08;1.38;;;0.30;98.00;;;;;;5031080;28;20060;-66
2020/12/30 04:11:41;;;;;;;3.53;1.35;;;0.30;98.00;;;;;;5028925;28;20465;-65
2020/12/30 04:14:07;;;;;;;2.72;1.55;;;0.20;98.00;;;;;;5029939;28;20029;-66
2020/12/30 04:16:33;;;;;;;5.72;1.80;;;0.10;98.00;;;;;;5029513;28;20373;-65
2020/12/30 04:18:58;;;;;;;3.17;1.42;;;0.00;98.00;;;;;;5029803;28;20040;-66
2020/12/30 04:21:25;;;;;;;3.03;1.67;;;0.00;98.00;;;;;;5030064;28;20029;-66
2020/12/30 04:23:52;;;;;;;3.10;1.60;;;-0.10;98.00;;;;;;5029481;28;20033;-66
2020/12/30 04:26:19;;;;;;;3.72;1.80;;;-0.20;98.00;;;;;;5028420;28;20030;-66
2020/12/30 04:28:45;;;;;;;8.65;1.80;;;-0.20;98.00;;;;;;5030314;28;20029;-66
2020/12/30 04:31:14;;;;;;;3.83;1.55;;;-0.20;98.00;;;;;;5029926;28;20022;-66
2020/12/30 04:33:40;;;;;;;3.35;1.70;;;-0.20;98.00;;;;;;5028970;28;20014;-65
2020/12/30 04:36:07;;;;;;;3.38;1.67;;;-0.20;98.00;;;;;;5029029;28;20060;-64
2020/12/30 04:38:34;;;;;;;3.00;2.15;;;-0.20;98.00;;;;;;5028657;28;20041;-64
2020/12/30 04:41:01;;;;;;;2.83;1.42;;;-0.20;98.00;;;;;;5027589;28;20034;-65
2020/12/30 04:43:28;;;;;;;3.00;1.60;;;-0.30;98.00;;;;;;5031293;28;20532;-65
2020/12/30 04:45:55;;;;;;;3.00;1.50;;;-0.30;98.00;;;;;;5028694;28;20037;-65
2020/12/30 04:48:24;;;;;;;2.72;1.75;;;-0.30;98.00;;;;;;5028680;28;20026;-66
2020/12/30 04:50:50;;;;;;;1.75;1.40;;;-0.40;98.00;;;;;;5028875;28;20049;-64
2020/12/30 04:53:18;;;;;;;2.05;1.40;;;-0.50;98.00;;;;;;5029058;28;20426;-63
2020/12/30 04:55:47;;;;;;;2.88;1.45;;;-0.50;98.00;;;;;;5028253;28;20135;-65
2020/12/30 04:58:15;;;;;;;3.55;1.45;;;-0.50;98.00;;;;;;5027850;28;20033;-64
2020/12/30 05:00:42;;;;;;;3.00;1.60;;;-0.60;98.00;;;;;;5028819;28;20033;-63
2020/12/30 05:03:10;;;;;;;2.92;1.70;;;-0.70;98.00;;;;;;5028197;28;20060;-64
2020/12/30 05:05:40;;;;;;;3.25;1.67;;;-0.80;98.00;;;;;;5029169;28;20030;-63
2020/12/30 05:08:12;;;;;;;2.08;1.48;;;-0.80;98.00;;;;;;5029354;28;20033;-65
2020/12/30 05:10:40;;;;;;;2.28;1.50;;;-0.80;98.00;;;;;;5030875;28;20452;-65
2020/12/30 05:13:06;;;;;;;4.43;2.13;;;-0.70;98.00;;;;;;5033014;28;20083;-66
2020/12/30 05:15:33;;;;;;;3.25;1.60;;;-0.70;98.00;;;;;;5028891;28;20039;-65
2020/12/30 05:18:03;;;;;;;5.68;2.08;;;-0.70;98.00;;;;;;5030119;28;20040;-63
2020/12/30 05:20:35;;;;;;;4.00;1.73;;;-0.70;98.00;;;;;;5029776;28;20071;-64
2020/12/30 05:23:02;;;;;;;5.45;1.90;;;-0.70;98.00;;;;;;5028805;28;20155;-64
2020/12/30 05:25:28;;;;;;;4.10;2.00;;;-0.70;98.00;;;;;;5027269;28;20052;-63
2020/12/30 05:27:54;;;;;;;4.15;2.20;;;-0.70;98.00;;;;;;5027765;28;21091;-65
2020/12/30 05:30:23;;;;;;;6.03;3.45;;;-0.60;98.00;;;;;;5028128;28;20097;-66
2020/12/30 05:32:53;;;;;;;11.38;6.80;;;-0.60;98.00;;;;;;5028341;28;20036;-63
2020/12/30 05:35:20;;;;;;;11.73;6.80;;;-0.60;98.00;;;;;;5028684;28;20064;-64
2020/12/30 05:37:47;;;;;;;8.15;4.28;;;-0.70;98.00;;;;;;5029069;28;20461;-66
2020/12/30 05:40:30;;;;;;;5.53;3.17;;;-0.70;98.00;;;;;;5027160;28;20030;-66
2020/12/30 05:43:16;;;;;;;5.80;4.55;;;-0.70;98.00;;;;;;5029298;28;20025;-64
2020/12/30 05:45:53;;;;;;;5.15;3.38;;;-0.70;98.00;;;;;;5031294;28;20116;-64
2020/12/30 05:48:20;;;;;;;7.07;4.20;;;-0.70;98.00;;;;;;5029369;28;20100;-64
2020/12/30 05:50:52;;;;;;;4.50;2.58;;;-0.70;98.00;;;;;;5027777;28;20057;-66
2020/12/30 05:53:19;;;;;;;8.90;4.28;;;-0.60;98.00;;;;;;5028540;28;20385;-66
2020/12/30 05:55:48;;;;;;;4.30;2.45;;;-0.50;98.00;;;;;;5050979;28;20157;-66
2020/12/30 05:58:15;;;;;;;4.82;3.22;;;-0.60;98.00;;;;;;5028956;28;20026;-65
2020/12/30 06:00:42;;;;;;;3.95;2.55;;;-0.70;98.00;;;;;;5032198;28;20095;-65
2020/12/30 06:03:12;;;;;;;7.75;2.10;;;-0.70;98.00;;;;;;5028170;28;20083;-66
2020/12/30 06:05:37;;;;;;;4.63;2.00;;;-0.70;98.00;;;;;;5028595;28;20318;-64
2020/12/30 06:08:04;;;;;;;5.20;2.60;;;-0.80;98.00;;;;;;5028500;28;20033;-65
2020/12/30 06:10:31;;;;;;;4.85;2.40;;;-0.80;98.00;;;;;;5026728;28;20045;-66
2020/12/30 06:12:59;;;;;;;5.72;3.05;;;-0.80;98.00;;;;;;5031288;28;20025;-66
2020/12/30 06:15:34;;;;;;;4.20;2.10;;;-0.80;98.00;;;;;;5042429;28;20033;-65
2020/12/30 06:18:07;;;;;;;3.50;2.30;;;-0.80;98.00;;;;;;5032335;28;20196;-64
2020/12/30 06:20:39;;;;;;;3.95;2.10;;;-0.80;98.00;;;;;;5032292;28;20026;-64
2020/12/30 06:23:09;;;;;;;5.97;3.15;;;-0.90;98.00;;;;;;5032304;28;20045;-64
2020/12/30 06:25:38;;;;;;;3.28;1.90;;;-0.90;98.00;;;;;;5030151;28;20033;-65
2020/12/30 06:28:14;;;;;;;5.35;2.72;;;-0.90;98.00;;;;;;5031812;28;20019;-66
2020/12/30 06:30:42;;;;;;;6.32;2.53;;;-0.80;98.00;;;;;;5032256;28;20017;-65
2020/12/30 06:33:09;;;;;;;5.45;3.13;;;-0.80;98.00;;;;;;5032060;28;20110;-66
2020/12/30 06:35:36;;;;;;;5.22;3.30;;;-0.70;98.00;;;;;;5031439;28;20442;-66
2020/12/30 06:38:22;;;;;;;4.57;2.58;;;-0.70;98.00;;;;;;5032567;28;20033;-65
2020/12/30 06:40:57;;;;;;;3.20;2.03;;;-0.70;98.00;;;;;;5035812;28;20040;-66
2020/12/30 06:43:43;;;;;;;4.07;2.20;;;-0.70;98.00;;;;;;5030639;28;20033;-64
2020/12/30 06:46:11;;;;;;;4.78;2.13;;;-0.60;98.00;;;;;;5031511;28;20100;-66
2020/12/30 06:49:00;;;;;;;4.07;2.55;;;-0.70;98.00;;;;;;5030533;28;20032;-64
2020/12/30 06:51:26;;;;;;;3.20;2.00;;;-0.70;98.00;;;;;;5030249;28;20081;-66
2020/12/30 06:53:54;;;;;;;2.97;2.00;;;-0.70;98.00;;;;;;5032971;28;20025;-66
2020/12/30 06:56:40;;;;;;;4.95;2.15;;;-0.70;98.00;;;;;;5030090;28;20033;-64
2020/12/30 06:59:09;;;;;;;3.80;1.85;;;-0.70;98.00;;;;;;5030663;28;20136;-64
2020/12/30 07:01:56;;;;;;;4.07;2.05;;;-0.70;98.00;;;;;;5032107;28;20092;-65
2020/12/30 07:04:23;;;;;;;5.15;2.20;;;-0.70;98.00;;;;;;5030940;28;20768;-65
2020/12/30 07:06:48;;;;;;;3.60;2.00;;;-0.70;98.00;;;;;;5031403;28;20094;-66
2020/12/30 07:09:15;;;;;;;6.15;2.63;;;-0.70;98.00;;;;;;5030415;28;20029;-65
2020/12/30 07:11:44;;;;;;;4.07;1.73;;;-0.70;98.00;;;;;;5030793;28;20430;-64
2020/12/30 07:14:14;;;;;;;4.15;2.17;;;-0.60;98.00;;;;;;5031748;28;20112;-67
2020/12/30 07:16:44;;;;;;;4.78;2.47;;;-0.60;98.00;;;;;;5033996;28;20024;-66
2020/12/30 07:19:12;;;;;;;10.65;2.67;;;-0.60;98.00;;;;;;5033373;28;20029;-64
2020/12/30 07:22:01;;;;;;;4.10;2.78;;;-0.50;98.00;;;;;;5031951;28;20048;-66
2020/12/30 07:24:35;;;;;;;6.47;2.95;;;-0.50;98.00;;;;;;5031923;28;20079;-66
2020/12/30 07:27:04;;;;;;;3.53;1.98;;;-0.50;98.00;;;;;;5029265;28;20029;-64
2020/12/30 07:29:31;;;;;;;6.35;2.00;;;-0.50;98.00;;;;;;5031290;28;20036;-64
2020/12/30 07:32:01;;;;;;;4.68;2.00;;;-0.40;98.00;;;;;;5031481;28;20022;-66
2020/12/30 07:34:29;;;;;;;3.30;1.92;;;-0.40;98.00;;;;;;5030711;28;20052;-63
2020/12/30 07:36:55;;;;;;;5.75;2.50;;;-0.40;98.00;;;;;;5030679;28;20091;-64
2020/12/30 07:39:29;;;;;;;2.42;1.70;;;-0.40;98.00;;;;;;5031419;28;20052;-65
2020/12/30 07:41:55;;;;;;;;;;;-0.30;98.00;;;;;;5029956;28;20438;-65
2020/12/30 07:44:21;;;;;;;2.75;1.90;;;-0.30;98.00;;;;;;5031681;28;19909;-65
2020/12/30 07:46:46;;;;;;;4.45;2.50;;;-0.40;98.00;;;;;;5030755;28;20048;-65
2020/12/30 07:49:20;;;;;;;5.20;2.90;;;-0.40;98.00;;;;;;5030534;28;20034;-66
2020/12/30 07:51:51;;;;;;;4.97;2.35;;;-0.20;98.00;;;;;;5030043;28;20042;-64
2020/12/30 07:54:18;;;;;;;4.25;2.55;;;-0.10;98.00;;;;;;5029803;28;20030;-65
2020/12/30 07:56:44;;;;;;;3.67;1.70;;;0.00;98.00;;;;;;5029931;28;20025;-65
2020/12/30 07:59:18;;;;;;;2.85;1.50;;;0.10;98.00;;;;;;5030218;28;20056;-66
2020/12/30 08:02:10;;;;;;;3.03;1.50;;;0.30;98.00;;;;;;5031086;28;20035;-64
2020/12/30 08:04:40;;;;;;;2.40;1.60;;;0.60;96.70;;;;;;5029378;28;20095;-66
2020/12/30 08:07:10;;;;;;;5.03;1.98;;;0.80;95.50;;;;;;5027912;28;20414;-66
2020/12/30 08:09:44;;;;;;;3.03;1.40;;;0.90;94.90;;;;;;5029475;28;20025;-64
2020/12/30 08:12:13;;;;;;;;;;;1.00;94.90;;;;;;5029611;28;20418;-65
2020/12/30 08:14:44;;;;;;;2.53;1.40;;;1.20;94.30;;;;;;5029947;28;20003;-65
2020/12/30 08:17:12;;;;;;;2.85;1.30;;;1.30;94.00;;;;;;5029730;28;20123;-65
2020/12/30 08:19:42;;;;;;;2.03;1.20;;;1.50;93.70;;;;;;5032730;28;20118;-63
2020/12/30 08:22:08;;;;;;;3.20;1.67;;;1.50;93.50;;;;;;5035387;28;20419;-64
2020/12/30 08:24:39;;;;;;;2.25;1.33;;;1.70;93.40;;;;;;5033128;28;20032;-65
2020/12/30 08:27:05;;;;;;;4.90;1.77;;;1.70;93.00;;;;;;5041516;28;20021;-65
2020/12/30 08:29:34;;;;;;;3.88;1.90;;;1.80;92.80;;;;;;5030438;28;20165;-65
2020/12/30 08:32:17;;;;;;;4.45;1.90;;;1.80;92.20;;;;;;5035560;28;20069;-65
2020/12/30 08:34:52;;;;;;;4.32;2.00;;;1.80;92.20;;;;;;5032766;28;20033;-65
2020/12/30 08:37:25;;;;;;;4.15;1.92;;;1.90;92.30;;;;;;5030944;28;20033;-65
2020/12/30 08:40:15;;;;;;;7.93;3.90;;;2.00;92.10;;;;;;5030586;28;20034;-64
2020/12/30 08:42:53;;;;;;;8.65;3.90;;;2.10;91.30;;;;;;5031845;28;20038;-64
2020/12/30 08:45:29;;;;;;;12.85;5.88;;;2.20;91.10;;;;;;5030789;28;20041;-63
2020/12/30 08:47:58;;;;;;;10.85;6.18;;;2.60;90.30;;;;;;5033046;28;20053;-65
2020/12/30 08:50:25;;;;;;;6.63;2.70;;;3.30;88.60;;;;;;5029507;28;20045;-64
2020/12/30 08:52:52;;;;;;;7.15;3.10;;;4.30;86.00;;;;;;5035814;28;20028;-64
2020/12/30 08:55:18;;;;;;;5.35;1.50;;;5.20;83.10;;;;;;5031748;28;20018;-65
2020/12/30 08:57:48;;;;;;;2.60;1.30;;;5.90;80.50;;;;;;5032782;28;20030;-65
2020/12/30 09:00:24;;;;;;;2.47;1.30;;;6.10;79.10;;;;;;5037926;28;20158;-65
2020/12/30 09:02:51;;;;;;;3.70;1.20;;;6.50;78.30;;;;;;5048714;28;20075;-65
2020/12/30 09:05:27;;;;;;;2.20;1.20;;;6.60;77.10;;;;;;5049594;28;20049;-65
2020/12/30 09:07:54;;;;;;;3.95;2.15;;;6.60;77.30;;;;;;5035316;28;20025;-62
2020/12/30 09:10:20;;;;;;;3.00;1.52;;;6.70;77.10;;;;;;5033607;28;20030;-63
2020/12/30 09:12:47;;;;;;;3.47;1.50;;;7.70;76.30;;;;;;5035494;28;20067;-64
2020/12/30 09:15:15;;;;;;;3.50;1.40;;;8.30;74.30;;;;;;5034403;28;20124;-63
2020/12/30 09:17:41;;;;;;;3.17;1.40;;;8.80;71.90;;;;;;5035314;28;20021;-63
2020/12/30 09:20:10;;;;;;;1.60;0.90;;;9.40;71.30;;;;;;5034525;28;20024;-65
2020/12/30 09:22:36;;;;;;;3.70;1.40;;;9.60;67.90;;;;;;5035092;28;20707;-66
2020/12/30 09:25:03;;;;;;;5.72;2.72;;;8.70;70.40;;;;;;5033907;28;20025;-65
2020/12/30 09:27:33;;;;;;;2.92;1.33;;;8.10;72.20;;;;;;5035212;28;20113;-66
2020/12/30 09:30:05;;;;;;;2.97;1.30;;;6.90;74.10;;;;;;5042332;28;20029;-66
2020/12/30 09:32:31;;;;;;;5.38;1.80;;;6.00;76.70;;;;;;5031996;28;20039;-66
2020/12/30 09:35:07;;;;;;;4.80;2.00;;;5.60;78.50;;;;;;5037919;28;20029;-66
2020/12/30 09:37:38;;;;;;;5.03;2.63;;;5.30;80.00;;;;;;5034854;28;20029;-64
2020/12/30 09:40:13;;;;;;;6.80;3.00;;;5.30;80.60;;;;;;5033616;28;20026;-65
2020/12/30 09:42:44;;;;;;;6.78;2.50;;;5.00;81.40;;;;;;5034962;28;20031;-65
2020/12/30 09:45:15;;;;;;;5.70;2.30;;;4.70;81.90;;;;;;5022259;28;20435;-64
2020/12/30 09:47:42;;;;;;;4.43;1.45;;;4.30;83.50;;;;;;5030934;28;20452;-64
2020/12/30 09:50:11;;;;;;;4.10;1.60;;;4.10;84.40;;;;;;5035922;28;20121;-65
2020/12/30 09:52:42;;;;;;;2.80;1.38;;;4.00;84.50;;;;;;5036799;28;20048;-65
2020/12/30 09:55:09;;;;;;;4.20;1.60;;;3.70;84.70;;;;;;5033648;28;20022;-65
2020/12/30 09:57:39;;;;;;;4.57;1.38;;;3.60;85.40;;;;;;5028635;28;20021;-66
2020/12/30 10:00:06;;;;;;;2.90;1.40;;;3.50;85.70;;;;;;5043683;28;20051;-65
2020/12/30 10:02:32;;;;;;;3.85;1.52;;;3.40;85.90;;;;;;5039271;28;20040;-65
2020/12/30 10:04:58;;;;;;;2.53;1.30;;;3.40;86.70;;;;;;5037041;28;20026;-65
2020/12/30 10:07:24;;;;;;;4.90;1.40;;;3.40;86.20;;;;;;5036194;28;20029;-66
2020/12/30 10:09:52;;;;;;;4.50;1.50;;;3.50;86.50;;;;;;5036871;28;20021;-65
2020/12/30 10:12:24;;;;;;;2.42;1.20;;;3.70;86.20;;;;;;5035967;28;20022;-65
2020/12/30 10:14:50;;;;;;;5.13;1.73;;;3.70;85.60;;;;;;5036356;28;20079;-65
2020/12/30 10:17:15;;;;;;;5.03;1.30;;;3.70;85.40;;;;;;5036365;28;20434;-65
2020/12/30 10:19:41;;;;;;;2.33;1.30;;;3.80;85.30;;;;;;5036979;28;20026;-64
2020/12/30 10:22:09;;;;;;;3.67;1.15;;;3.90;85.20;;;;;;5035953;28;20357;-65
2020/12/30 10:24:36;;;;;;;3.90;1.60;;;4.00;84.90;;;;;;5035665;28;20104;-66
2020/12/30 10:27:02;;;;;;;3.72;1.50;;;4.00;84.70;;;;;;5035018;28;20030;-65
2020/12/30 10:29:30;;;;;;;2.65;1.52;;;3.90;85.20;;;;;;5035201;28;20026;-65
2020/12/30 10:31:56;;;;;;;3.33;1.40;;;3.80;85.50;;;;;;5036524;28;20041;-65
2020/12/30 10:34:23;;;;;;;3.55;1.35;;;3.80;86.20;;;;;;5037042;28;20025;-65
2020/12/30 10:36:49;;;;;;;3.58;1.58;;;3.80;85.90;;;;;;5034299;28;20037;-64
2020/12/30 10:39:14;;;;;;;2.42;1.35;;;3.70;86.10;;;;;;5035472;28;20435;-65
2020/12/30 10:41:40;;;;;;;2.25;1.30;;;3.70;86.10;;;;;;5034699;28;20112;-66
2020/12/30 10:44:05;;;;;;;6.43;2.40;;;3.90;86.20;;;;;;5036099;28;20112;-65
2020/12/30 10:46:31;;;;;;;6.35;1.70;;;4.10;86.00;;;;;;5037466;28;20026;-66
2020/12/30 10:48:57;;;;;;;3.45;1.40;;;4.40;85.10;;;;;;5037406;28;20053;-64
2020/12/30 10:51:22;;;;;;;10.50;5.25;;;4.40;84.00;;;;;;5041490;28;20045;-66
2020/12/30 10:53:48;;;;;;;4.28;2.03;;;4.50;84.60;;;;;;5040825;28;20303;-66
2020/12/30 10:56:14;;;;;;;2.75;1.40;;;4.60;84.20;;;;;;5035437;28;20067;-66
2020/12/30 10:58:40;;;;;;;5.40;2.15;;;4.50;83.80;;;;;;5036875;28;20033;-66
2020/12/30 11:01:07;;;;;;;3.42;1.70;;;4.60;84.30;;;;;;5034743;28;20056;-66
2020/12/30 11:03:33;;;;;;;3.88;1.75;;;4.80;83.30;;;;;;5037296;28;20013;-65
2020/12/30 11:05:59;;;;;;;5.10;1.65;;;4.70;83.60;;;;;;5037106;28;20041;-66
2020/12/30 11:08:26;;;;;;;6.03;1.83;;;4.80;83.90;;;;;;5028843;28;20036;-65
2020/12/30 11:10:51;;;;;;;2.95;1.58;;;4.70;83.80;;;;;;5033479;28;20030;-67
2020/12/30 11:13:17;;;;;;;6.65;2.72;;;4.70;83.90;;;;;;5035412;28;20021;-66
2020/12/30 11:15:43;;;;;;;3.40;1.60;;;4.70;84.10;;;;;;5033717;28;20029;-66
2020/12/30 11:18:08;;;;;;;4.78;2.85;;;4.70;83.90;;;;;;5035619;28;20060;-66
2020/12/30 11:20:34;;;;;;;7.70;3.88;;;4.50;84.70;;;;;;5033924;28;20032;-66
2020/12/30 11:22:59;;;;;;;13.45;6.47;;;4.60;85.50;;;;;;5035054;28;20029;-64
2020/12/30 11:25:25;;;;;;;24.05;11.38;;;4.60;85.20;;;;;;5033047;28;20044;-65
2020/12/30 11:27:51;;;;;;;25.40;12.38;;;4.50;85.90;;;;;;5036814;28;20310;-66
2020/12/30 11:30:19;;;;;;;24.63;10.52;;;4.20;86.90;;;;;;5036587;28;20335;-66
2020/12/30 11:32:44;;;;;;;16.80;8.52;;;4.00;88.90;;;;;;5027940;28;20100;-65
2020/12/30 11:35:11;;;;;;;24.77;12.88;;;4.00;89.90;;;;;;5035320;28;20101;-67
2020/12/30 11:37:37;;;;;;;14.35;5.40;;;3.80;89.90;;;;;;5034183;28;20026;-65
2020/12/30 11:40:04;;;;;;;6.40;4.15;;;3.70;90.20;;;;;;5033113;28;20029;-67
2020/12/30 11:42:29;;;;;;;9.13;4.63;;;3.70;90.80;;;;;;5033894;28;20030;-67
2020/12/30 11:44:55;;;;;;;8.73;2.83;;;3.70;90.60;;;;;;5035001;28;20041;-67
2020/12/30 11:47:26;;;;;;;5.55;3.00;;;3.70;90.10;;;;;;5034340;28;20025;-67
2020/12/30 11:49:55;;;;;;;15.70;8.45;;;3.60;90.60;;;;;;5035929;28;20353;-67
2020/12/30 11:52:24;;;;;;;7.22;4.20;;;3.60;90.90;;;;;;5044674;28;20116;-66
2020/12/30 11:54:49;;;;;;;7.07;4.35;;;3.70;91.20;;;;;;5042665;28;20320;-65
2020/12/30 11:57:15;;;;;;;5.55;2.95;;;3.80;91.20;;;;;;5035702;28;20045;-67
2020/12/30 11:59:44;;;;;;;6.30;2.90;;;3.80;90.50;;;;;;5038365;28;20025;-66
2020/12/30 12:02:09;;;;;;;6.78;2.97;;;3.80;90.60;;;;;;5033525;28;20028;-65
2020/12/30 12:04:38;;;;;;;6.93;2.90;;;3.70;90.60;;;;;;5035070;28;20037;-65
2020/12/30 12:07:04;;;;;;;6.03;2.83;;;3.60;90.80;;;;;;5034818;28;20037;-65
2020/12/30 12:09:30;;;;;;;5.25;2.70;;;3.60;91.10;;;;;;5039495;28;20026;-65
2020/12/30 12:11:55;;;;;;;8.95;4.55;;;3.60;91.20;;;;;;5032855;28;20034;-65
2020/12/30 12:14:21;;;;;;;14.50;7.93;;;3.60;91.30;;;;;;5035105;28;20099;-68
2020/12/30 12:16:58;;;;;;;5.63;2.78;;;3.80;91.40;;;;;;5033904;28;20030;-68
2020/12/30 12:19:27;;;;;;;6.10;2.20;;;3.80;90.80;;;;;;5034833;28;20030;-67
2020/12/30 12:21:55;;;;;;;4.25;2.25;;;3.80;90.50;;;;;;5034981;28;20022;-67
2020/12/30 12:24:21;;;;;;;5.45;3.08;;;3.80;90.80;;;;;;5034161;28;20025;-67
2020/12/30 12:26:46;;;;;;;5.68;3.20;;;3.90;91.30;;;;;;5033405;28;20030;-67
2020/12/30 12:29:42;;;;;;;7.50;3.05;;;4.00;91.10;;;;;;5033462;28;20017;-68
2020/12/30 12:32:17;;;;;;;4.28;2.40;;;4.00;90.80;;;;;;5034385;28;20040;-67
2020/12/30 12:34:48;;;;;;;7.72;3.35;;;4.00;91.00;;;;;;5034754;28;20024;-67
2020/12/30 12:37:18;;;;;;;5.72;2.90;;;4.00;91.30;;;;;;5033760;28;20059;-67
2020/12/30 12:39:45;;;;;;;13.38;6.93;;;4.10;90.80;;;;;;5034515;28;20034;-67
2020/12/30 12:42:11;;;;;;;8.48;4.60;;;4.10;90.90;;;;;;5032644;28;20033;-67
2020/12/30 12:44:38;;;;;;;7.53;4.13;;;4.20;90.80;;;;;;5039605;28;20032;-67
2020/12/30 12:47:04;;;;;;;10.48;5.75;;;4.20;91.10;;;;;;5033998;28;20029;-68
2020/12/30 12:49:29;;;;;;;7.40;3.35;;;4.30;90.50;;;;;;5034292;28;20105;-68
2020/12/30 12:51:56;;;;;;;7.18;4.10;;;4.20;90.70;;;;;;5033034;28;20124;-67
2020/12/30 12:54:25;;;;;;;7.32;3.88;;;4.20;90.80;;;;;;5034130;28;20045;-67
2020/12/30 12:56:58;;;;;;;9.75;3.90;;;4.10;90.70;;;;;;5032614;28;20350;-67
2020/12/30 12:59:25;;;;;;;9.60;4.35;;;4.10;90.90;;;;;;5033308;28;20040;-66
2020/12/30 13:01:51;;;;;;;5.28;2.83;;;4.00;90.60;;;;;;5034267;28;20083;-67